Time;durP1;ratioP1;P1;durP2;ratioP2;P2;SDS_P1;SDS_P2;PMS_P1;PMS_P2;Temp;Humidity;BMP_temperature;BMP_pressure;BME280_temperature;BME280_humidity;BME280_pressure;Samples;Min_cycle;Max_cycle;Signal;HPM_P1;HPM_P2
2021/01/10 00:02:24;;;;;;;25.80;10.88;;;4.90;84.40;;;;;;5078950;28;20036;-63
2021/01/10 00:04:50;;;;;;;22.02;11.20;;;4.90;84.20;;;;;;5060207;28;20040;-62
2021/01/10 00:07:15;;;;;;;26.58;11.85;;;4.90;83.90;;;;;;5078799;28;20788;-63
2021/01/10 00:09:41;;;;;;;25.77;11.68;;;4.90;83.90;;;;;;5075692;28;20062;-63
2021/01/10 00:12:07;;;;;;;24.42;11.57;;;4.80;84.00;;;;;;5078424;28;20046;-63
2021/01/10 00:14:33;;;;;;;21.63;10.73;;;4.90;84.10;;;;;;5079572;28;20040;-63
2021/01/10 00:16:58;;;;;;;27.08;12.45;;;4.90;84.20;;;;;;5078774;28;20032;-64
2021/01/10 00:19:24;;;;;;;23.75;11.35;;;4.90;84.00;;;;;;5079350;28;20032;-64
2021/01/10 00:21:50;;;;;;;22.67;11.27;;;4.90;84.00;;;;;;5077220;28;20043;-64
2021/01/10 00:24:15;;;;;;;21.30;10.63;;;4.90;84.00;;;;;;5079185;28;20032;-64
2021/01/10 00:26:41;;;;;;;27.88;12.32;;;4.90;83.70;;;;;;5078283;28;20115;-63
2021/01/10 00:29:07;;;;;;;26.90;12.02;;;4.90;84.00;;;;;;5079238;28;20028;-63
2021/01/10 00:31:34;;;;;;;25.67;11.90;;;4.90;83.70;;;;;;5078812;28;20166;-62
2021/01/10 00:34:01;;;;;;;25.02;11.82;;;4.80;83.30;;;;;;5077926;28;20085;-62
2021/01/10 00:36:37;;;;;;;27.90;12.77;;;4.80;83.80;;;;;;5078223;28;20442;-62
2021/01/10 00:39:06;;;;;;;28.13;12.52;;;4.80;83.90;;;;;;5078909;28;20036;-64
2021/01/10 00:41:39;;;;;;;25.85;11.30;;;4.90;84.00;;;;;;5078459;28;20024;-64
2021/01/10 00:44:06;;;;;;;23.75;11.40;;;4.80;83.60;;;;;;5060618;28;20131;-64
2021/01/10 00:46:32;;;;;;;29.10;12.77;;;4.80;83.60;;;;;;5059733;28;20105;-64
2021/01/10 00:48:59;;;;;;;27.15;12.02;;;4.80;84.00;;;;;;5077947;28;20035;-67
2021/01/10 00:51:25;;;;;;;27.52;12.45;;;4.80;83.60;;;;;;5078561;28;20143;-63
2021/01/10 00:53:50;;;;;;;26.17;12.15;;;4.80;84.00;;;;;;5059660;28;20057;-63
2021/01/10 00:56:17;;;;;;;24.70;11.75;;;4.80;84.00;;;;;;5054453;28;20118;-64
2021/01/10 00:58:43;;;;;;;27.38;11.82;;;4.80;84.00;;;;;;5060525;28;20428;-64
2021/01/10 01:01:09;;;;;;;26.73;12.18;;;4.80;83.90;;;;;;5060361;28;20032;-64
2021/01/10 01:03:36;;;;;;;28.35;11.63;;;4.80;83.80;;;;;;5059974;28;20040;-64
2021/01/10 01:06:01;;;;;;;30.27;14.65;;;4.80;83.50;;;;;;5059137;28;20040;-64
2021/01/10 01:08:27;;;;;;;32.05;14.15;;;4.80;83.90;;;;;;5057154;28;20043;-64
2021/01/10 01:10:53;;;;;;;26.08;12.10;;;4.80;83.90;;;;;;5077931;28;20051;-64
2021/01/10 01:13:19;;;;;;;25.02;11.25;;;4.70;83.70;;;;;;5077963;28;20028;-64
2021/01/10 01:15:50;;;;;;;26.67;12.02;;;4.80;84.10;;;;;;5059166;28;20051;-63
2021/01/10 01:18:20;;;;;;;25.65;10.88;;;4.80;83.70;;;;;;5078146;28;20554;-63
2021/01/10 01:20:46;;;;;;;28.70;12.73;;;4.80;83.90;;;;;;5078120;28;20121;-63
2021/01/10 01:23:12;;;;;;;31.65;14.70;;;4.80;83.70;;;;;;5077335;28;20040;-63
2021/01/10 01:25:39;;;;;;;25.23;12.52;;;4.80;83.30;;;;;;5077642;28;20040;-63
2021/01/10 01:28:05;;;;;;;30.40;13.75;;;4.80;83.50;;;;;;5077434;28;20028;-63
2021/01/10 01:30:31;;;;;;;27.58;12.93;;;4.80;83.40;;;;;;5078213;28;20047;-63
2021/01/10 01:32:57;;;;;;;27.17;12.13;;;4.80;83.40;;;;;;5068329;28;20044;-63
2021/01/10 01:35:22;;;;;;;30.73;13.13;;;4.80;83.20;;;;;;5069925;28;20027;-64
2021/01/10 01:37:48;;;;;;;30.08;13.05;;;4.70;84.30;;;;;;5076253;28;20032;-63
2021/01/10 01:40:14;;;;;;;32.17;13.45;;;4.70;83.80;;;;;;5072731;28;20726;-63
2021/01/10 01:42:40;;;;;;;27.80;12.48;;;4.70;83.60;;;;;;5076751;28;20435;-63
2021/01/10 01:45:07;;;;;;;31.73;13.13;;;4.70;83.80;;;;;;5075763;28;20035;-63
2021/01/10 01:47:35;;;;;;;34.42;14.15;;;4.70;83.80;;;;;;5077369;28;20036;-63
2021/01/10 01:50:02;;;;;;;37.80;13.18;;;4.70;83.30;;;;;;5077387;28;20141;-63
2021/01/10 01:52:28;;;;;;;30.63;14.15;;;4.70;83.40;;;;;;5077421;28;20234;-63
2021/01/10 01:54:54;;;;;;;31.92;13.85;;;4.70;83.40;;;;;;5076423;28;20550;-63
2021/01/10 01:57:20;;;;;;;30.52;13.25;;;4.60;83.50;;;;;;5076109;28;20072;-63
2021/01/10 01:59:46;;;;;;;30.65;12.90;;;4.60;83.60;;;;;;5076952;28;20035;-63
2021/01/10 02:02:12;;;;;;;30.27;12.43;;;4.60;83.70;;;;;;5077364;28;20784;-65
2021/01/10 02:04:47;;;;;;;26.90;11.50;;;4.60;84.00;;;;;;5076920;28;20035;-64
2021/01/10 02:07:41;;;;;;;27.27;12.38;;;4.60;83.60;;;;;;5073304;28;20067;-64
2021/01/10 02:10:12;;;;;;;21.92;10.45;;;4.60;83.70;;;;;;5075979;28;20038;-66
2021/01/10 02:12:55;;;;;;;23.50;11.07;;;4.60;83.80;;;;;;5076489;28;20589;-65
2021/01/10 02:15:27;;;;;;;29.38;11.88;;;4.60;83.60;;;;;;5075946;28;20397;-72
2021/01/10 02:17:54;;;;;;;22.25;10.30;;;4.60;83.70;;;;;;5076620;28;20077;-64
2021/01/10 02:20:29;;;;;;;23.10;10.50;;;4.60;83.40;;;;;;5077902;28;20411;-64
2021/01/10 02:23:06;;;;;;;19.10;9.68;;;4.60;83.80;;;;;;5077285;28;20117;-64
2021/01/10 02:25:34;;;;;;;25.52;11.23;;;4.60;83.70;;;;;;5058239;28;20036;-63
2021/01/10 02:28:01;;;;;;;24.48;10.75;;;4.60;83.20;;;;;;5078008;28;20055;-64
2021/01/10 02:30:28;;;;;;;22.13;10.30;;;4.60;83.20;;;;;;5077779;28;20574;-64
2021/01/10 02:33:01;;;;;;;25.90;11.63;;;4.60;83.10;;;;;;5077279;28;20040;-64
2021/01/10 02:35:28;;;;;;;23.17;10.80;;;4.60;82.80;;;;;;5074331;28;20408;-64
2021/01/10 02:38:28;;;;;;;24.73;10.85;;;4.60;82.60;;;;;;5077935;28;20032;-64
2021/01/10 02:41:06;;;;;;;25.98;12.48;;;4.50;83.40;;;;;;5077332;28;20083;-64
2021/01/10 02:43:33;;;;;;;24.05;11.52;;;4.50;82.70;;;;;;5077171;28;20646;-65
2021/01/10 02:46:05;;;;;;;22.30;10.25;;;4.40;83.20;;;;;;5075274;28;20835;-64
2021/01/10 02:48:32;;;;;;;22.88;9.80;;;4.40;83.00;;;;;;5077066;28;20478;-64
2021/01/10 02:50:58;;;;;;;18.52;9.30;;;4.40;83.50;;;;;;5077833;28;20495;-64
2021/01/10 02:53:24;;;;;;;19.65;9.30;;;4.40;83.50;;;;;;5077432;28;20042;-64
2021/01/10 02:55:50;;;;;;;20.15;9.13;;;4.40;83.60;;;;;;5076142;28;20068;-64
2021/01/10 02:58:19;;;;;;;16.90;8.40;;;4.40;82.80;;;;;;5077097;28;20032;-64
2021/01/10 03:00:47;;;;;;;16.92;8.20;;;4.50;83.00;;;;;;5076834;28;20474;-64
2021/01/10 03:03:14;;;;;;;17.38;8.57;;;4.50;83.00;;;;;;5072996;28;20024;-64
2021/01/10 03:05:41;;;;;;;18.02;8.52;;;4.50;83.00;;;;;;5076469;28;20150;-64
2021/01/10 03:08:07;;;;;;;21.10;8.60;;;4.50;83.00;;;;;;5077241;28;20836;-64
2021/01/10 03:10:33;;;;;;;13.70;7.05;;;4.50;82.20;;;;;;5076574;28;20028;-64
2021/01/10 03:12:59;;;;;;;15.07;8.25;;;4.60;81.90;;;;;;5076146;28;20043;-64
2021/01/10 03:15:25;;;;;;;17.73;9.00;;;4.50;81.70;;;;;;5076220;28;20036;-64
2021/01/10 03:17:51;;;;;;;20.08;9.68;;;4.50;81.60;;;;;;5077230;28;20036;-64
2021/01/10 03:20:21;;;;;;;18.67;8.82;;;4.50;81.80;;;;;;5076617;28;20031;-64
2021/01/10 03:22:49;;;;;;;19.45;9.45;;;4.50;81.70;;;;;;5076015;28;20043;-64
2021/01/10 03:25:21;;;;;;;20.63;9.48;;;4.50;81.90;;;;;;5066916;28;20210;-64
2021/01/10 03:27:47;;;;;;;21.25;10.00;;;4.40;82.10;;;;;;5075138;28;20119;-65
2021/01/10 03:30:17;;;;;;;21.70;10.48;;;4.50;81.90;;;;;;5075946;28;20036;-64
2021/01/10 03:32:43;;;;;;;17.77;8.55;;;4.40;82.00;;;;;;5075417;28;20043;-64
2021/01/10 03:35:09;;;;;;;19.65;8.85;;;4.30;82.30;;;;;;5075039;28;20032;-64
2021/01/10 03:37:38;;;;;;;18.42;8.95;;;4.30;82.30;;;;;;5071411;28;20613;-64
2021/01/10 03:40:04;;;;;;;19.65;9.93;;;4.30;82.40;;;;;;5076550;28;20119;-64
2021/01/10 03:42:30;;;;;;;22.95;10.45;;;4.40;82.50;;;;;;5076458;28;20028;-64
2021/01/10 03:44:56;;;;;;;22.35;10.10;;;4.40;82.40;;;;;;5076384;28;20133;-64
2021/01/10 03:47:21;;;;;;;23.20;9.38;;;4.40;82.60;;;;;;5070890;28;20032;-64
2021/01/10 03:49:47;;;;;;;15.77;7.65;;;4.40;82.20;;;;;;5076008;28;20038;-64
2021/01/10 03:52:13;;;;;;;19.60;9.10;;;4.30;82.10;;;;;;5075594;28;20040;-64
2021/01/10 03:54:38;;;;;;;17.38;8.50;;;4.30;82.50;;;;;;5074755;28;20028;-64
2021/01/10 03:57:04;;;;;;;18.80;8.45;;;4.30;82.40;;;;;;5076439;28;20908;-64
2021/01/10 03:59:30;;;;;;;15.13;7.45;;;4.30;82.50;;;;;;5076293;28;20538;-64
2021/01/10 04:01:55;;;;;;;17.95;8.98;;;4.30;82.50;;;;;;5079471;28;20032;-64
2021/01/10 04:04:21;;;;;;;19.88;8.93;;;4.40;82.50;;;;;;5061348;28;20655;-64
2021/01/10 04:06:47;;;;;;;17.38;8.93;;;4.40;81.70;;;;;;5069636;28;20040;-64
2021/01/10 04:09:13;;;;;;;18.15;8.88;;;4.40;82.00;;;;;;5079879;28;20090;-64
2021/01/10 04:11:39;;;;;;;23.00;9.88;;;4.40;81.90;;;;;;5080153;28;20036;-65
2021/01/10 04:14:04;;;;;;;19.48;9.52;;;4.40;82.10;;;;;;5079324;28;20035;-65
2021/01/10 04:16:30;;;;;;;17.58;8.20;;;4.30;82.30;;;;;;5078842;28;20106;-62
2021/01/10 04:18:56;;;;;;;21.15;9.18;;;4.30;82.50;;;;;;5061903;28;20054;-65
2021/01/10 04:21:21;;;;;;;17.40;8.07;;;4.40;82.60;;;;;;5079605;28;20179;-65
2021/01/10 04:23:47;;;;;;;16.30;8.25;;;4.30;82.40;;;;;;5079565;28;20079;-64
2021/01/10 04:26:13;;;;;;;19.98;9.40;;;4.40;82.60;;;;;;5073610;28;20035;-65
2021/01/10 04:28:39;;;;;;;17.25;8.82;;;4.40;82.20;;;;;;5079632;28;20120;-65
2021/01/10 04:31:05;;;;;;;18.80;9.10;;;4.40;82.30;;;;;;5060640;28;20035;-64
2021/01/10 04:33:30;;;;;;;24.73;10.23;;;4.40;82.30;;;;;;5079813;28;20504;-64
2021/01/10 04:35:56;;;;;;;22.00;9.75;;;4.40;82.30;;;;;;5079112;28;20036;-64
2021/01/10 04:38:22;;;;;;;20.65;8.65;;;4.40;82.20;;;;;;5078844;28;20042;-64
2021/01/10 04:40:47;;;;;;;18.52;9.75;;;4.40;82.30;;;;;;5079824;28;20024;-64
2021/01/10 04:43:14;;;;;;;21.15;9.02;;;4.40;82.70;;;;;;5073849;28;20036;-64
2021/01/10 04:45:40;;;;;;;20.02;8.80;;;4.40;82.40;;;;;;5073235;28;20060;-64
2021/01/10 04:48:07;;;;;;;24.27;10.38;;;4.40;82.30;;;;;;5079300;28;20990;-64
2021/01/10 04:50:34;;;;;;;22.60;9.85;;;4.40;82.20;;;;;;5079020;28;20187;-64
2021/01/10 04:53:02;;;;;;;22.75;9.18;;;4.40;82.20;;;;;;5060148;28;20440;-64
2021/01/10 04:55:30;;;;;;;20.95;9.65;;;4.40;82.40;;;;;;5078832;28;20069;-64
2021/01/10 04:58:05;;;;;;;23.27;10.23;;;4.30;82.70;;;;;;5075865;28;20777;-64
2021/01/10 05:00:32;;;;;;;22.13;10.73;;;4.40;82.40;;;;;;5078192;28;20036;-64
2021/01/10 05:03:10;;;;;;;22.10;10.45;;;4.30;82.50;;;;;;5077926;28;20036;-64
2021/01/10 05:05:38;;;;;;;20.02;8.77;;;4.30;82.40;;;;;;5077224;28;20074;-63
2021/01/10 05:08:11;;;;;;;23.73;9.80;;;4.30;82.70;;;;;;5078001;28;20032;-63
2021/01/10 05:10:39;;;;;;;22.45;9.60;;;4.30;82.80;;;;;;5077396;28;20040;-63
2021/01/10 05:13:05;;;;;;;24.10;10.48;;;4.30;82.70;;;;;;5078494;28;20786;-63
2021/01/10 05:15:32;;;;;;;26.23;11.38;;;4.30;83.00;;;;;;5077164;28;20047;-63
2021/01/10 05:17:58;;;;;;;23.67;10.43;;;4.30;83.20;;;;;;5078750;28;20023;-63
2021/01/10 05:20:25;;;;;;;23.98;10.88;;;4.40;82.90;;;;;;5076779;28;20117;-62
2021/01/10 05:22:51;;;;;;;25.60;10.88;;;4.30;82.40;;;;;;5076544;28;20633;-63
2021/01/10 05:25:17;;;;;;;25.73;10.77;;;4.30;82.70;;;;;;5076954;28;20123;-63
2021/01/10 05:27:48;;;;;;;24.40;10.85;;;4.20;82.40;;;;;;5072595;28;20128;-68
2021/01/10 05:30:15;;;;;;;25.15;11.48;;;4.20;83.00;;;;;;5078440;28;20130;-63
2021/01/10 05:32:41;;;;;;;22.20;11.38;;;4.20;83.00;;;;;;5077496;28;20102;-72
2021/01/10 05:35:07;;;;;;;24.17;10.80;;;4.20;83.10;;;;;;5076048;28;20573;-64
2021/01/10 05:37:33;;;;;;;22.17;10.73;;;4.20;83.10;;;;;;5078015;28;20039;-68
2021/01/10 05:39:58;;;;;;;25.42;11.50;;;4.20;83.20;;;;;;5077392;28;20031;-66
2021/01/10 05:42:30;;;;;;;27.67;11.82;;;4.20;82.90;;;;;;5074822;28;20445;-64
2021/01/10 05:44:56;;;;;;;23.88;12.05;;;4.20;83.00;;;;;;5070274;28;20102;-64
2021/01/10 05:47:22;;;;;;;26.80;11.60;;;4.10;83.00;;;;;;5077337;28;20828;-64
2021/01/10 05:49:53;;;;;;;23.92;11.05;;;4.10;83.00;;;;;;5076776;28;20040;-67
2021/01/10 05:52:20;;;;;;;25.98;11.65;;;4.10;83.20;;;;;;5076262;28;20040;-64
2021/01/10 05:54:50;;;;;;;20.42;10.38;;;4.00;83.40;;;;;;5076889;28;20058;-63
2021/01/10 05:57:26;;;;;;;21.75;11.07;;;3.90;83.00;;;;;;5073940;28;20039;-64
2021/01/10 05:59:53;;;;;;;27.70;12.02;;;3.80;83.50;;;;;;5077749;28;20059;-64
2021/01/10 06:02:34;;;;;;;21.13;10.35;;;3.80;84.10;;;;;;5077865;28;20492;-64
2021/01/10 06:05:19;;;;;;;26.58;12.55;;;3.80;83.40;;;;;;5077401;28;20050;-64
2021/01/10 06:07:47;;;;;;;24.13;11.18;;;3.80;83.80;;;;;;5077185;28;20036;-64
2021/01/10 06:10:23;;;;;;;23.08;10.50;;;3.80;83.40;;;;;;5077695;28;20032;-64
2021/01/10 06:13:05;;;;;;;24.88;12.88;;;3.80;83.80;;;;;;5077247;28;20027;-64
2021/01/10 06:15:32;;;;;;;28.98;12.32;;;3.90;83.70;;;;;;5071400;28;20040;-64
2021/01/10 06:18:01;;;;;;;23.70;11.02;;;3.80;83.50;;;;;;5064477;28;20111;-64
2021/01/10 06:20:28;;;;;;;32.50;14.25;;;3.70;83.30;;;;;;5065811;28;20040;-63
2021/01/10 06:22:59;;;;;;;28.10;14.20;;;3.70;84.50;;;;;;5063976;28;20162;-63
2021/01/10 06:25:27;;;;;;;27.52;12.13;;;3.80;84.10;;;;;;5063930;28;20054;-63
2021/01/10 06:28:06;;;;;;;25.00;10.65;;;3.70;83.90;;;;;;5053382;28;20128;-63
2021/01/10 06:30:34;;;;;;;25.52;12.15;;;3.80;83.80;;;;;;5060197;28;20050;-63
2021/01/10 06:33:32;;;;;;;20.58;10.82;;;3.90;83.40;;;;;;5052543;28;20024;-61
2021/01/10 06:36:07;;;;;;;16.67;8.40;;;4.50;86.20;;;;;;5070105;28;20491;-61
2021/01/10 06:38:37;;;;;;;14.23;8.18;;;5.50;79.20;;;;;;5046688;28;20075;-61
2021/01/10 06:41:24;;;;;;;14.93;7.93;;;6.30;74.20;;;;;;5054417;28;20036;-61
2021/01/10 06:44:01;;;;;;;14.38;8.50;;;7.30;68.50;;;;;;5058857;28;20037;-62
2021/01/10 06:46:27;;;;;;;15.13;8.88;;;7.80;66.30;;;;;;5059442;28;20115;-63
2021/01/10 06:48:54;;;;;;;14.77;8.52;;;7.80;64.10;;;;;;5052678;28;20040;-63
2021/01/10 06:51:25;;;;;;;14.85;8.18;;;7.60;65.00;;;;;;5047711;28;20486;-63
2021/01/10 06:53:51;;;;;;;14.98;9.25;;;7.20;66.00;;;;;;5055365;28;20040;-66
2021/01/10 06:56:17;;;;;;;16.15;10.00;;;6.70;66.90;;;;;;5055856;28;20066;-63
2021/01/10 06:59:11;;;;;;;14.55;8.25;;;6.10;68.60;;;;;;5062112;28;20036;-62
2021/01/10 07:01:45;;;;;;;11.85;6.80;;;5.60;70.90;;;;;;5047956;28;20927;-63
2021/01/10 07:04:11;;;;;;;14.75;8.27;;;5.30;72.60;;;;;;5055692;28;20408;-63
2021/01/10 07:06:48;;;;;;;16.13;9.00;;;5.00;73.80;;;;;;5065736;28;20029;-62
2021/01/10 07:09:15;;;;;;;12.98;6.82;;;4.90;74.10;;;;;;5058820;28;20086;-61
2021/01/10 07:11:41;;;;;;;12.10;6.97;;;5.00;78.20;;;;;;5056585;28;20104;-61
2021/01/10 07:14:13;;;;;;;11.40;7.05;;;5.80;75.50;;;;;;5066096;28;20555;-61
2021/01/10 07:16:40;;;;;;;11.40;7.13;;;6.90;71.50;;;;;;5056534;28;20073;-62
2021/01/10 07:19:07;;;;;;;9.32;6.20;;;7.60;66.60;;;;;;5054289;28;20048;-61
2021/01/10 07:21:34;;;;;;;10.70;6.75;;;8.30;62.20;;;;;;5069606;28;20059;-62
2021/01/10 07:24:21;;;;;;;10.43;6.50;;;8.40;61.00;;;;;;5063618;28;20086;-61
2021/01/10 07:26:55;;;;;;;9.90;6.97;;;8.50;59.90;;;;;;5054668;28;20407;-63
2021/01/10 07:29:42;;;;;;;10.05;7.47;;;8.80;58.60;;;;;;5059433;28;20089;-63
2021/01/10 07:32:09;;;;;;;;;;;9.00;58.00;;;;;;5051951;28;20036;-64
2021/01/10 07:34:36;;;;;;;;;;;8.50;58.40;;;;;;5062093;28;20327;-64
2021/01/10 07:37:05;;;;;;;11.77;7.47;;;7.80;59.30;;;;;;5066042;28;19924;-63
2021/01/10 07:39:37;;;;;;;10.98;8.02;;;7.20;62.00;;;;;;5054423;28;20584;-64
2021/01/10 07:42:09;;;;;;;10.75;6.97;;;6.50;63.60;;;;;;5055530;28;20033;-64
2021/01/10 07:44:50;;;;;;;11.77;6.88;;;6.00;66.50;;;;;;5049869;28;20548;-64
2021/01/10 07:47:17;;;;;;;19.40;11.80;;;5.60;68.30;;;;;;5065209;28;20844;-65
2021/01/10 07:49:50;;;;;;;26.45;13.57;;;5.30;69.30;;;;;;5066106;28;20079;-63
2021/01/10 07:52:17;;;;;;;14.15;8.95;;;5.00;70.80;;;;;;5066796;28;20043;-63
2021/01/10 07:54:54;;;;;;;24.58;15.45;;;4.70;72.10;;;;;;5060609;28;20039;-63
2021/01/10 07:57:24;;;;;;;27.85;20.25;;;4.40;73.40;;;;;;5063115;28;20678;-67
2021/01/10 08:00:05;;;;;;;18.75;13.65;;;4.20;74.70;;;;;;5061672;28;20040;-63
2021/01/10 08:03:04;;;;;;;14.50;8.10;;;4.00;75.30;;;;;;5072681;28;20040;-63
2021/01/10 08:05:36;;;;;;;13.82;7.95;;;3.90;75.70;;;;;;5050969;28;20087;-67
2021/01/10 08:08:13;;;;;;;17.80;10.73;;;4.00;76.40;;;;;;5062328;28;20032;-63
2021/01/10 08:10:44;;;;;;;17.05;8.57;;;3.90;76.80;;;;;;5040858;28;20047;-63
2021/01/10 08:13:40;;;;;;;19.27;10.13;;;3.90;76.60;;;;;;5062383;28;20060;-67
2021/01/10 08:16:07;;;;;;;17.63;10.20;;;3.90;77.60;;;;;;5050070;28;20147;-64
2021/01/10 08:18:37;;;;;;;17.25;9.23;;;3.80;77.90;;;;;;5062686;28;20051;-63
2021/01/10 08:21:05;;;;;;;16.95;8.63;;;3.70;77.80;;;;;;5040729;28;20040;-63
2021/01/10 08:23:31;;;;;;;19.98;10.00;;;3.60;77.90;;;;;;5063448;28;20079;-63
2021/01/10 08:26:14;;;;;;;16.58;9.27;;;3.50;78.80;;;;;;5059122;28;20815;-63
2021/01/10 08:28:42;;;;;;;19.05;10.20;;;3.30;79.10;;;;;;5060836;28;20051;-63
2021/01/10 08:31:14;;;;;;;16.38;9.00;;;3.30;78.80;;;;;;5054919;28;20500;-63
2021/01/10 08:33:40;;;;;;;15.55;7.93;;;3.30;79.10;;;;;;5071145;28;20882;-63
2021/01/10 08:36:14;;;;;;;16.05;8.38;;;3.30;79.00;;;;;;5035377;28;20036;-63
2021/01/10 08:38:52;;;;;;;15.65;8.35;;;3.20;79.10;;;;;;5069843;28;20043;-63
2021/01/10 08:41:25;;;;;;;15.05;8.25;;;3.20;78.80;;;;;;5063651;28;20468;-63
2021/01/10 08:44:00;;;;;;;16.70;8.25;;;3.00;79.00;;;;;;5052464;28;20047;-63
2021/01/10 08:46:27;;;;;;;17.80;9.38;;;3.10;79.50;;;;;;5062698;28;20032;-63
2021/01/10 08:48:53;;;;;;;15.70;8.48;;;3.10;78.90;;;;;;5059010;28;20060;-63
2021/01/10 08:51:34;;;;;;;14.48;8.50;;;3.10;77.70;;;;;;5056164;28;20123;-63
2021/01/10 08:54:02;;;;;;;16.50;8.45;;;3.10;78.90;;;;;;5061327;28;20028;-63
2021/01/10 08:56:29;;;;;;;12.63;6.72;;;3.20;79.00;;;;;;5055810;28;20139;-63
2021/01/10 08:58:56;;;;;;;16.05;8.05;;;3.20;79.40;;;;;;5060804;28;20091;-63
2021/01/10 09:01:23;;;;;;;14.60;7.97;;;3.30;79.80;;;;;;5053796;28;20052;-63
2021/01/10 09:03:57;;;;;;;13.95;8.15;;;3.40;79.70;;;;;;5050190;28;20036;-63
2021/01/10 09:06:49;;;;;;;14.00;8.15;;;3.40;78.60;;;;;;5067449;28;20058;-63
2021/01/10 09:09:38;;;;;;;12.77;7.47;;;3.50;77.10;;;;;;5064038;28;20043;-63
2021/01/10 09:12:30;;;;;;;12.52;7.00;;;3.40;77.60;;;;;;5048980;28;20060;-63
2021/01/10 09:15:04;;;;;;;13.13;7.38;;;3.40;77.30;;;;;;5062405;28;20130;-67
2021/01/10 09:17:53;;;;;;;15.30;7.43;;;3.40;77.80;;;;;;5057048;28;20465;-67
2021/01/10 09:20:24;;;;;;;16.17;8.93;;;3.40;77.60;;;;;;5060929;28;20163;-67
2021/01/10 09:22:50;;;;;;;13.45;7.32;;;3.40;78.10;;;;;;5070497;28;20036;-67
2021/01/10 09:25:17;;;;;;;10.43;6.55;;;3.50;77.70;;;;;;5035887;28;20098;-71
2021/01/10 09:28:09;;;;;;;12.18;6.72;;;3.50;77.40;;;;;;5066685;28;20028;-70
2021/01/10 09:30:36;;;;;;;12.02;7.15;;;3.60;76.90;;;;;;5062814;28;20045;-70
2021/01/10 09:33:04;;;;;;;20.38;10.38;;;3.60;76.70;;;;;;5065505;28;20130;-70
2021/01/10 09:35:44;;;;;;;17.70;8.95;;;3.60;76.80;;;;;;5057196;28;20039;-70
2021/01/10 09:38:21;;;;;;;13.57;7.93;;;3.70;77.20;;;;;;5069425;28;20032;-70
2021/01/10 09:41:06;;;;;;;14.18;7.63;;;3.80;77.00;;;;;;5060237;28;20028;-70
2021/01/10 09:43:40;;;;;;;12.88;6.22;;;3.80;77.00;;;;;;5044875;28;20568;-70
2021/01/10 09:46:26;;;;;;;9.38;6.25;;;4.00;75.20;;;;;;5046189;28;20063;-70
2021/01/10 09:48:53;;;;;;;13.87;7.03;;;4.10;75.20;;;;;;5058311;28;20075;-70
2021/01/10 09:51:20;;;;;;;15.50;8.27;;;4.00;74.90;;;;;;5064122;28;20371;-70
2021/01/10 09:53:48;;;;;;;12.82;6.45;;;4.00;75.70;;;;;;5070963;28;20134;-69
2021/01/10 09:56:39;;;;;;;9.65;5.43;;;3.90;74.70;;;;;;5053490;28;20056;-70
2021/01/10 09:59:05;;;;;;;9.10;5.32;;;3.70;74.70;;;;;;5062521;28;20076;-70
2021/01/10 10:01:37;;;;;;;10.95;6.40;;;3.60;75.70;;;;;;5065557;28;20061;-69
2021/01/10 10:04:04;;;;;;;9.05;5.25;;;3.60;75.20;;;;;;5065307;28;20028;-70
2021/01/10 10:06:48;;;;;;;10.73;5.85;;;3.60;74.70;;;;;;5061547;28;20043;-70
2021/01/10 10:09:14;;;;;;;10.73;5.43;;;3.50;74.90;;;;;;5060606;27;20057;-70
2021/01/10 10:11:39;;;;;;;10.32;5.63;;;3.40;75.40;;;;;;5059258;28;20938;-70
2021/01/10 10:14:08;;;;;;;10.25;5.32;;;3.40;75.90;;;;;;5049044;28;20530;-70
2021/01/10 10:16:33;;;;;;;10.25;5.85;;;3.40;76.10;;;;;;5041257;28;20036;-70
2021/01/10 10:18:59;;;;;;;11.45;5.88;;;3.50;76.60;;;;;;5048568;28;20110;-70
2021/01/10 10:21:25;;;;;;;11.77;6.38;;;3.50;76.30;;;;;;5030906;28;20119;-69
2021/01/10 10:23:51;;;;;;;14.50;6.15;;;3.60;76.30;;;;;;5035599;28;20029;-71
2021/01/10 10:26:16;;;;;;;13.18;6.15;;;3.70;76.90;;;;;;5034471;28;20137;-70
2021/01/10 10:28:42;;;;;;;11.38;5.90;;;3.80;76.50;;;;;;5031000;28;20363;-70
2021/01/10 10:31:08;;;;;;;9.68;5.38;;;3.70;75.60;;;;;;5035552;28;20091;-70
2021/01/10 10:33:34;;;;;;;8.90;5.03;;;3.60;75.20;;;;;;5036677;28;20045;-70
2021/01/10 10:36:01;;;;;;;10.43;6.15;;;3.60;75.20;;;;;;5010754;28;20099;-70
2021/01/10 10:38:27;;;;;;;11.95;5.68;;;3.50;75.90;;;;;;5011137;28;20143;-70
2021/01/10 10:40:53;;;;;;;11.70;6.28;;;3.40;76.30;;;;;;5013908;28;20041;-70
2021/01/10 10:43:19;;;;;;;12.35;6.63;;;3.50;76.40;;;;;;5033420;28;20052;-70
2021/01/10 10:45:45;;;;;;;30.48;17.25;;;3.50;77.10;;;;;;5035596;28;20081;-68
2021/01/10 10:48:11;;;;;;;12.00;6.70;;;3.60;76.90;;;;;;5030229;28;20033;-69
2021/01/10 10:50:36;;;;;;;10.43;6.43;;;3.70;76.50;;;;;;5035523;28;20060;-69
2021/01/10 10:53:05;;;;;;;11.07;6.00;;;3.70;76.00;;;;;;5034719;28;20029;-68
2021/01/10 10:55:31;;;;;;;10.98;5.78;;;3.70;75.70;;;;;;5034773;28;20071;-69
2021/01/10 10:57:56;;;;;;;10.35;5.80;;;3.80;75.10;;;;;;5035348;28;20036;-69
2021/01/10 11:00:22;;;;;;;11.65;6.00;;;3.90;75.80;;;;;;5035397;28;20863;-70
2021/01/10 11:02:48;;;;;;;11.13;6.18;;;4.00;73.40;;;;;;5035884;28;20819;-71
2021/01/10 11:05:14;;;;;;;11.10;5.90;;;4.00;74.00;;;;;;5029640;28;20048;-69
2021/01/10 11:07:40;;;;;;;13.38;9.05;;;4.00;73.10;;;;;;5034628;28;20032;-70
2021/01/10 11:10:06;;;;;;;18.75;11.05;;;4.00;73.90;;;;;;5035576;28;20075;-69
2021/01/10 11:12:33;;;;;;;35.72;17.90;;;3.90;73.10;;;;;;5035317;28;20078;-63
2021/01/10 11:15:00;;;;;;;22.15;12.30;;;3.80;74.20;;;;;;5026207;28;20029;-64
2021/01/10 11:17:26;;;;;;;13.98;7.30;;;3.80;74.90;;;;;;5032207;28;20040;-63
2021/01/10 11:19:52;;;;;;;13.15;7.68;;;3.80;75.20;;;;;;5028969;28;20022;-63
2021/01/10 11:22:17;;;;;;;12.43;7.07;;;3.80;75.30;;;;;;5024071;28;20065;-64
2021/01/10 11:24:43;;;;;;;14.65;9.45;;;3.80;75.10;;;;;;5035762;28;20511;-64
2021/01/10 11:27:12;;;;;;;18.20;9.90;;;3.90;75.40;;;;;;5034550;28;20527;-64
2021/01/10 11:29:38;;;;;;;26.38;14.27;;;3.90;75.80;;;;;;5033488;28;20158;-64
2021/01/10 11:32:04;;;;;;;12.38;7.15;;;4.00;75.40;;;;;;5028412;28;20116;-63
2021/01/10 11:34:30;;;;;;;18.13;9.93;;;4.00;74.90;;;;;;5034627;28;20052;-63
2021/01/10 11:36:56;;;;;;;11.77;6.25;;;4.10;74.70;;;;;;5021501;28;20022;-62
2021/01/10 11:39:27;;;;;;;13.75;7.18;;;4.00;73.90;;;;;;5035480;28;20091;-62
2021/01/10 11:41:55;;;;;;;16.38;8.50;;;4.00;73.90;;;;;;5034930;28;20051;-62
2021/01/10 11:44:23;;;;;;;15.02;7.32;;;3.90;75.10;;;;;;5031957;28;20028;-64
2021/01/10 11:46:50;;;;;;;14.90;8.90;;;3.90;74.90;;;;;;5025265;28;20825;-64
2021/01/10 11:49:18;;;;;;;13.07;6.38;;;3.70;75.30;;;;;;5034870;28;20581;-64
2021/01/10 11:51:44;;;;;;;14.13;8.05;;;3.80;75.60;;;;;;5035203;28;20033;-64
2021/01/10 11:54:12;;;;;;;13.00;6.93;;;3.80;74.80;;;;;;5034957;28;20037;-63
2021/01/10 11:56:46;;;;;;;13.63;6.85;;;3.90;75.60;;;;;;5027021;28;20102;-64
2021/01/10 11:59:14;;;;;;;13.98;7.25;;;4.00;75.90;;;;;;5033733;28;20108;-64
2021/01/10 12:01:40;;;;;;;12.30;7.13;;;4.20;74.70;;;;;;5035305;28;20037;-64
2021/01/10 12:04:07;;;;;;;12.95;7.40;;;4.30;73.40;;;;;;5033681;28;20048;-63
2021/01/10 12:06:34;;;;;;;14.52;8.10;;;4.20;73.70;;;;;;5032913;28;20047;-64
2021/01/10 12:09:00;;;;;;;17.13;8.10;;;4.20;73.60;;;;;;5032240;28;20048;-63
2021/01/10 12:11:26;;;;;;;12.50;7.72;;;4.20;73.90;;;;;;5031193;28;20033;-63
2021/01/10 12:13:52;;;;;;;14.85;7.75;;;4.00;74.90;;;;;;5035092;28;20035;-65
2021/01/10 12:16:19;;;;;;;15.32;8.95;;;3.90;74.30;;;;;;5029355;28;20048;-65
2021/01/10 12:18:46;;;;;;;17.30;8.95;;;3.90;74.70;;;;;;5035056;28;20041;-64
2021/01/10 12:21:12;;;;;;;13.95;8.18;;;3.90;73.60;;;;;;5038086;28;20025;-64
2021/01/10 12:23:39;;;;;;;14.68;7.72;;;3.90;73.80;;;;;;5029289;28;20033;-64
2021/01/10 12:26:15;;;;;;;12.13;6.68;;;3.90;73.20;;;;;;5032820;28;20048;-64
2021/01/10 12:28:42;;;;;;;13.60;7.60;;;3.90;73.40;;;;;;5039297;28;20051;-64
2021/01/10 12:31:08;;;;;;;11.45;7.18;;;3.90;73.50;;;;;;5037558;28;20041;-64
2021/01/10 12:33:34;;;;;;;12.40;7.20;;;4.00;74.10;;;;;;5037024;28;20040;-64
2021/01/10 12:36:01;;;;;;;12.70;7.38;;;4.10;73.00;;;;;;5023958;28;20586;-64
2021/01/10 12:38:26;;;;;;;15.65;7.50;;;4.10;72.80;;;;;;5023224;28;20021;-64
2021/01/10 12:40:52;;;;;;;14.95;7.75;;;4.20;73.50;;;;;;5038736;28;20048;-64
2021/01/10 12:43:18;;;;;;;13.20;7.75;;;4.10;72.70;;;;;;5038161;28;20029;-64
2021/01/10 12:45:43;;;;;;;12.93;7.10;;;4.10;73.40;;;;;;5026768;28;20053;-64
2021/01/10 12:48:10;;;;;;;14.95;8.50;;;4.10;73.00;;;;;;5037865;28;20033;-64
2021/01/10 12:50:36;;;;;;;15.30;7.65;;;4.00;73.50;;;;;;5037976;28;20033;-64
2021/01/10 12:53:02;;;;;;;12.75;7.72;;;4.00;73.80;;;;;;5038334;28;20033;-64
2021/01/10 12:55:28;;;;;;;13.38;8.07;;;3.80;73.60;;;;;;5037373;28;20064;-64